createdAt,value
2019-03-11T00:00:39.065Z,8.90
2019-03-11T00:03:07.848Z,8.70
2019-03-11T00:05:36.310Z,8.50
2019-03-11T00:08:04.835Z,8.30
2019-03-11T00:10:33.347Z,8.10
2019-03-11T00:13:01.913Z,8.00
2019-03-11T00:15:30.532Z,7.90
2019-03-11T00:17:59.064Z,7.80
2019-03-11T00:20:27.536Z,7.70
2019-03-11T00:22:56.004Z,7.60
2019-03-11T00:25:24.462Z,7.50
2019-03-11T00:27:53.054Z,7.50
2019-03-11T00:30:21.530Z,7.40
2019-03-11T00:32:49.986Z,7.40
2019-03-11T00:35:18.428Z,7.40
2019-03-11T00:37:46.892Z,7.30
2019-03-11T00:40:15.980Z,7.30
2019-03-11T00:42:44.472Z,7.20
2019-03-11T00:45:16.597Z,7.20
2019-03-11T00:47:45.050Z,7.30
2019-03-11T00:50:14.197Z,7.30
2019-03-11T00:52:42.755Z,7.30
2019-03-11T00:55:13.416Z,7.30
2019-03-11T00:57:41.975Z,7.30
2019-03-11T01:00:25.361Z,7.40
2019-03-11T01:02:53.818Z,7.40
2019-03-11T01:05:22.598Z,7.40
2019-03-11T01:07:51.047Z,7.40
2019-03-11T01:10:19.979Z,7.50
2019-03-11T01:12:48.428Z,7.50
2019-03-11T01:15:16.926Z,7.50
2019-03-11T01:17:45.588Z,7.50
2019-03-11T01:20:14.499Z,7.60
2019-03-11T01:22:42.945Z,7.60
2019-03-11T01:25:13.357Z,7.60
2019-03-11T01:27:42.577Z,7.60
2019-03-11T01:30:13.572Z,7.60
2019-03-11T01:32:42.032Z,7.70
2019-03-11T01:35:11.690Z,7.70
2019-03-11T01:37:40.183Z,7.70
2019-03-11T01:40:14.023Z,7.70
2019-03-11T01:42:42.485Z,7.80
2019-03-11T01:45:13.863Z,7.80
2019-03-11T01:47:42.432Z,7.80
2019-03-11T01:50:13.259Z,7.90
2019-03-11T01:52:42.068Z,7.90
2019-03-11T01:55:12.162Z,7.80
2019-03-11T01:57:40.637Z,7.90
2019-03-11T02:00:16.864Z,7.90
2019-03-11T02:02:45.502Z,8.00
2019-03-11T02:05:14.553Z,7.90
2019-03-11T02:07:43.041Z,7.90
2019-03-11T02:10:14.416Z,7.90
2019-03-11T02:12:42.942Z,8.00
2019-03-11T02:15:16.093Z,7.90
2019-03-11T02:17:44.757Z,7.90
2019-03-11T02:20:15.720Z,7.90
2019-03-11T02:22:44.259Z,7.90
2019-03-11T02:25:14.940Z,7.90
2019-03-11T02:27:43.403Z,7.80
2019-03-11T02:30:17.285Z,7.80
2019-03-11T02:32:46.273Z,7.90
2019-03-11T02:35:20.446Z,7.90
2019-03-11T02:37:48.888Z,7.90
2019-03-11T02:40:17.467Z,7.90
2019-03-11T02:42:45.925Z,7.90
2019-03-11T02:45:14.443Z,7.90
2019-03-11T02:47:42.897Z,8.00
2019-03-11T02:50:11.941Z,8.00
2019-03-11T02:52:40.388Z,8.00
2019-03-11T02:55:09.543Z,8.10
2019-03-11T02:57:38.439Z,8.10
2019-03-11T03:00:19.135Z,8.20
2019-03-11T03:02:59.237Z,8.20
2019-03-11T03:05:31.862Z,8.30
2019-03-11T03:08:00.601Z,8.30
2019-03-11T03:10:29.127Z,8.30
2019-03-11T03:12:57.679Z,8.30
2019-03-11T03:15:26.154Z,8.30
2019-03-11T03:17:54.590Z,8.30
2019-03-11T03:20:23.084Z,8.30
2019-03-11T03:22:51.523Z,8.30
2019-03-11T03:25:33.087Z,8.40
2019-03-11T03:27:50.342Z,8.40
2019-03-11T03:30:20.554Z,8.40
2019-03-11T03:32:49.102Z,8.50
2019-03-11T03:35:17.557Z,8.50
2019-03-11T03:37:46.032Z,8.40
2019-03-11T03:40:16.196Z,8.40
2019-03-11T03:42:45.095Z,8.40
2019-03-11T03:45:19.603Z,8.50
2019-03-11T03:47:48.143Z,8.40
2019-03-11T03:50:16.741Z,8.30
2019-03-11T03:52:45.490Z,8.30
2019-03-11T03:55:14.027Z,8.30
2019-03-11T03:57:42.516Z,8.30
2019-03-11T04:00:11.896Z,8.30
2019-03-11T04:02:40.430Z,8.30
2019-03-11T04:05:11.355Z,8.30
2019-03-11T04:07:40.217Z,8.30
2019-03-11T04:10:11.645Z,8.30
2019-03-11T04:12:40.553Z,8.20
2019-03-11T04:15:10.500Z,8.30
2019-03-11T04:17:39.689Z,8.30
2019-03-11T04:20:11.474Z,8.30
2019-03-11T04:22:40.200Z,8.30
2019-03-11T04:25:10.098Z,8.30
2019-03-11T04:27:39.019Z,8.20
2019-03-11T04:30:10.616Z,8.20
2019-03-11T04:32:39.174Z,8.20
2019-03-11T04:35:07.939Z,8.10
2019-03-11T04:37:36.439Z,8.00
2019-03-11T04:40:07.998Z,8.00
2019-03-11T04:42:36.448Z,8.00
2019-03-11T04:45:07.732Z,8.00
2019-03-11T04:47:36.229Z,7.90
2019-03-11T04:50:07.542Z,7.90
2019-03-11T04:52:36.025Z,7.80
2019-03-11T04:55:06.884Z,7.80
2019-03-11T04:57:53.386Z,7.80
2019-03-11T05:00:27.666Z,7.90
2019-03-11T05:02:56.292Z,7.90
2019-03-11T05:05:24.770Z,7.90
2019-03-11T05:07:53.223Z,7.90
2019-03-11T05:10:21.704Z,7.90
2019-03-11T05:12:53.101Z,8.00
2019-03-11T05:15:21.767Z,8.10
2019-03-11T05:17:50.743Z,8.10
2019-03-11T05:20:19.651Z,8.20
2019-03-11T05:22:49.819Z,8.20
2019-03-11T05:25:18.658Z,8.20
2019-03-11T05:27:47.256Z,8.30
2019-03-11T05:30:17.754Z,8.40
2019-03-11T05:32:46.357Z,8.40
2019-03-11T05:35:15.421Z,8.40
2019-03-11T05:37:43.956Z,8.40
2019-03-11T05:40:16.602Z,8.40
2019-03-11T05:42:45.048Z,8.40
2019-03-11T05:45:17.576Z,8.30
2019-03-11T05:47:46.370Z,8.30
2019-03-11T05:50:18.796Z,8.30
2019-03-11T05:52:47.348Z,8.20
2019-03-11T05:55:16.513Z,8.30
2019-03-11T05:57:45.130Z,8.20
2019-03-11T06:00:21.230Z,8.20
2019-03-11T06:02:49.777Z,8.20
2019-03-11T06:05:18.493Z,8.20
2019-03-11T06:07:47.109Z,8.10
2019-03-11T06:10:16.412Z,8.10
2019-03-11T06:12:45.105Z,8.10
2019-03-11T06:15:14.602Z,8.10
2019-03-11T06:17:43.274Z,8.20
2019-03-11T06:20:32.123Z,8.20
2019-03-11T06:23:02.302Z,8.20
2019-03-11T06:25:30.850Z,8.20
2019-03-11T06:27:59.397Z,8.20
2019-03-11T06:30:28.016Z,8.10
2019-03-11T06:32:56.461Z,8.00
2019-03-11T06:35:25.216Z,8.00
2019-03-11T06:37:53.757Z,7.80
2019-03-11T06:40:22.242Z,7.70
2019-03-11T06:42:50.700Z,7.50
2019-03-11T06:45:19.305Z,7.40
2019-03-11T06:47:47.762Z,7.30
2019-03-11T06:50:16.348Z,7.30
2019-03-11T06:52:44.917Z,7.10
2019-03-11T06:55:13.712Z,7.00
2019-03-11T06:57:42.186Z,6.90
2019-03-11T07:00:19.619Z,7.00
2019-03-11T07:02:48.187Z,6.90
2019-03-11T07:05:20.453Z,6.90
2019-03-11T07:07:47.207Z,6.90
2019-03-11T07:10:16.701Z,6.90
2019-03-11T07:12:45.271Z,6.90
2019-03-11T07:15:15.938Z,6.90
2019-03-11T07:17:44.972Z,6.90
2019-03-11T07:20:19.729Z,6.90
2019-03-11T07:22:48.372Z,6.90
2019-03-11T07:25:17.011Z,7.00
2019-03-11T07:27:45.543Z,7.00
2019-03-11T07:30:18.939Z,7.00
2019-03-11T07:32:47.591Z,7.00
2019-03-11T07:35:16.255Z,7.00
2019-03-11T07:37:44.922Z,7.00
2019-03-11T07:40:14.636Z,7.10
2019-03-11T07:42:43.263Z,7.10
2019-03-11T07:45:13.369Z,7.20
2019-03-11T07:47:41.829Z,7.20
2019-03-11T07:50:11.913Z,7.20
2019-03-11T07:52:40.462Z,7.30
2019-03-11T07:55:10.657Z,7.40
2019-03-11T07:57:39.145Z,7.40
2019-03-11T08:00:12.421Z,7.50
2019-03-11T08:02:40.898Z,7.60
2019-03-11T08:05:10.590Z,7.60
2019-03-11T08:07:39.149Z,7.70
2019-03-11T08:10:13.186Z,7.70
2019-03-11T08:12:41.799Z,7.70
2019-03-11T08:15:15.630Z,7.80
2019-03-11T08:17:44.172Z,7.90
2019-03-11T08:20:13.759Z,7.90
2019-03-11T08:22:42.305Z,7.90
2019-03-11T08:25:15.470Z,7.90
2019-03-11T08:27:44.300Z,7.90
2019-03-11T08:30:18.697Z,7.90
2019-03-11T08:32:47.185Z,7.90
2019-03-11T08:35:15.867Z,7.90
2019-03-11T08:37:44.480Z,7.90
2019-03-11T08:40:17.793Z,7.90
2019-03-11T08:42:46.361Z,8.00
2019-03-11T08:45:16.157Z,8.00
2019-03-11T08:47:44.790Z,8.00
2019-03-11T08:50:14.506Z,8.00
2019-03-11T08:52:42.971Z,8.00
2019-03-11T08:55:11.591Z,8.10
2019-03-11T08:57:41.459Z,8.10
2019-03-11T09:00:18.487Z,8.10
2019-03-11T09:02:47.014Z,8.10
2019-03-11T09:05:17.775Z,8.10
2019-03-11T09:07:46.508Z,8.10
2019-03-11T09:10:19.314Z,8.00
2019-03-11T09:12:48.123Z,8.00
2019-03-11T09:15:18.734Z,8.00
2019-03-11T09:17:47.485Z,7.90
2019-03-11T09:20:17.339Z,7.90
2019-03-11T09:22:45.823Z,7.90
2019-03-11T09:25:18.447Z,7.90
2019-03-11T09:27:47.066Z,7.90
2019-03-11T09:30:20.778Z,7.90
2019-03-11T09:32:49.405Z,7.90
2019-03-11T09:35:18.058Z,8.00
2019-03-11T09:37:46.595Z,8.00
2019-03-11T09:40:17.080Z,8.00
2019-03-11T09:42:45.744Z,7.60
2019-03-11T09:45:16.029Z,8.20
2019-03-11T09:47:44.778Z,8.20
2019-03-11T09:50:18.090Z,8.20
2019-03-11T09:52:46.738Z,8.20
2019-03-11T09:55:19.629Z,8.20
2019-03-11T09:57:48.213Z,8.30
2019-03-11T10:00:24.550Z,8.30
2019-03-11T10:02:53.425Z,8.30
2019-03-11T10:05:22.289Z,8.20
2019-03-11T10:07:51.009Z,8.20
2019-03-11T10:10:24.460Z,8.20
2019-03-11T10:12:53.120Z,8.10
2019-03-11T10:15:22.555Z,8.10
2019-03-11T10:17:51.018Z,8.00
2019-03-11T10:20:20.073Z,8.00
2019-03-11T10:22:48.796Z,8.00
2019-03-11T10:25:17.994Z,8.00
2019-03-11T10:27:46.552Z,8.10
2019-03-11T10:30:21.795Z,8.10
2019-03-11T10:32:51.230Z,8.20
2019-03-11T10:35:31.259Z,8.30
2019-03-11T10:37:50.434Z,8.40
2019-03-11T10:40:31.901Z,8.40
2019-03-11T10:43:00.452Z,8.40
2019-03-11T10:45:31.754Z,8.40
2019-03-11T10:47:59.150Z,8.40
2019-03-11T10:50:27.699Z,8.40
2019-03-11T10:52:56.264Z,8.40
2019-03-11T10:55:25.752Z,8.40
2019-03-11T10:57:54.299Z,8.50
2019-03-11T11:00:29.097Z,8.50
2019-03-11T11:02:57.647Z,8.60
2019-03-11T11:05:26.208Z,8.60
2019-03-11T11:07:54.815Z,8.60
2019-03-11T11:10:23.434Z,8.60
2019-03-11T11:12:52.200Z,8.70
2019-03-11T11:15:24.995Z,8.70
2019-03-11T11:17:53.576Z,8.70
2019-03-11T11:20:23.402Z,8.80
2019-03-11T11:22:52.989Z,8.80
2019-03-11T11:25:22.384Z,8.80
2019-03-11T11:27:51.095Z,9.00
2019-03-11T11:30:21.400Z,9.10
2019-03-11T11:32:50.025Z,9.10
2019-03-11T11:35:18.790Z,9.20
2019-03-11T11:37:47.337Z,9.20
2019-03-11T11:40:18.557Z,9.20
2019-03-11T11:42:47.114Z,9.10
2019-03-11T11:45:17.979Z,9.00
2019-03-11T11:47:46.517Z,9.00
2019-03-11T11:50:17.547Z,9.00
2019-03-11T11:52:46.096Z,8.90
2019-03-11T11:55:16.130Z,8.90
2019-03-11T11:57:44.837Z,8.90
2019-03-11T12:00:19.765Z,8.80
2019-03-11T12:02:48.215Z,8.90
2019-03-11T12:05:17.433Z,8.90
2019-03-11T12:07:46.140Z,9.00
2019-03-11T12:10:16.967Z,9.10
2019-03-11T12:12:45.725Z,9.30
2019-03-11T12:15:14.913Z,9.40
2019-03-11T12:17:43.523Z,9.50
2019-03-11T12:20:17.889Z,9.60
2019-03-11T12:22:46.378Z,9.60
2019-03-11T12:25:16.105Z,9.70
2019-03-11T12:27:53.153Z,9.70
2019-03-11T12:30:30.321Z,9.70
2019-03-11T12:32:59.082Z,9.70
2019-03-11T12:35:27.805Z,9.70
2019-03-11T12:37:56.703Z,9.70
2019-03-11T12:40:25.263Z,9.70
2019-03-11T12:42:54.078Z,9.70
2019-03-11T12:45:26.156Z,9.60
2019-03-11T12:47:54.872Z,9.70
2019-03-11T12:50:28.054Z,9.70
2019-03-11T12:52:56.832Z,9.70
2019-03-11T12:55:25.281Z,9.80
2019-03-11T12:57:53.802Z,9.80
2019-03-11T13:00:24.290Z,9.90
2019-03-11T13:02:53.367Z,10.00
2019-03-11T13:05:22.234Z,10.00
2019-03-11T13:07:51.005Z,10.10
2019-03-11T13:10:29.689Z,10.20
2019-03-11T13:12:58.181Z,10.20
2019-03-11T13:15:26.819Z,10.20
2019-03-11T13:17:57.303Z,10.20
2019-03-11T13:20:37.784Z,10.20
2019-03-11T13:23:06.323Z,10.20
2019-03-11T13:25:34.804Z,10.30
2019-03-11T13:28:03.354Z,10.30
2019-03-11T13:30:31.903Z,10.40
2019-03-11T13:33:00.358Z,10.50
2019-03-11T13:35:28.841Z,10.60
2019-03-11T13:37:57.577Z,10.60
2019-03-11T13:40:26.220Z,10.70
2019-03-11T13:42:56.245Z,10.70
2019-03-11T13:45:24.872Z,10.80
2019-03-11T13:47:53.344Z,10.90
2019-03-11T13:50:21.909Z,10.90
2019-03-11T13:52:50.464Z,11.00
2019-03-11T13:55:19.273Z,11.00
2019-03-11T13:57:47.801Z,11.00
2019-03-11T14:00:20.352Z,11.00
2019-03-11T14:02:49.067Z,11.10
2019-03-11T14:05:17.520Z,11.00
2019-03-11T14:07:46.087Z,10.90
2019-03-11T14:10:15.575Z,10.80
2019-03-11T14:12:44.572Z,10.80
2019-03-11T14:15:15.331Z,10.80
2019-03-11T14:17:43.803Z,10.80
2019-03-11T14:20:15.460Z,10.70
2019-03-11T14:22:44.070Z,10.80
2019-03-11T14:25:13.880Z,10.70
2019-03-11T14:27:42.532Z,10.70
2019-03-11T14:30:15.550Z,10.60
2019-03-11T14:32:44.004Z,10.50
2019-03-11T14:35:13.315Z,10.40
2019-03-11T14:37:41.862Z,10.30
2019-03-11T14:40:18.602Z,10.20
2019-03-11T14:42:47.103Z,10.10
2019-03-11T14:45:19.342Z,10.00
2019-03-11T14:47:47.926Z,10.00
2019-03-11T14:50:17.504Z,9.90
2019-03-11T14:52:46.031Z,9.90
2019-03-11T14:55:15.068Z,9.80
2019-03-11T14:57:44.002Z,9.80
2019-03-11T15:00:18.713Z,9.70
2019-03-11T15:02:48.532Z,9.70
2019-03-11T15:05:18.160Z,9.80
2019-03-11T15:07:47.253Z,10.00
2019-03-11T15:10:17.609Z,10.30
2019-03-11T15:12:46.237Z,10.70
2019-03-11T15:15:22.809Z,11.10
2019-03-11T15:17:51.294Z,11.30
2019-03-11T15:20:19.861Z,11.40
2019-03-11T15:22:48.783Z,11.50
2019-03-11T15:25:18.141Z,11.40
2019-03-11T15:27:46.945Z,11.50
2019-03-11T15:30:18.012Z,11.50
2019-03-11T15:32:46.682Z,11.40
2019-03-11T15:35:15.423Z,11.30
2019-03-11T15:37:43.980Z,11.20
2019-03-11T15:40:14.207Z,11.10
2019-03-11T15:42:42.734Z,10.80
2019-03-11T15:45:13.728Z,10.70
2019-03-11T15:47:42.395Z,10.50
2019-03-11T15:50:19.523Z,10.40
2019-03-11T15:52:48.054Z,10.40
2019-03-11T15:55:17.377Z,10.30
2019-03-11T15:57:45.997Z,10.20
2019-03-11T16:00:17.499Z,10.10
2019-03-11T16:02:46.381Z,10.00
2019-03-11T16:05:16.539Z,9.90
2019-03-11T16:07:45.173Z,9.80
2019-03-11T16:10:17.145Z,9.80
2019-03-11T16:12:45.707Z,9.70
2019-03-11T16:15:15.295Z,9.60
2019-03-11T16:17:43.811Z,9.50
2019-03-11T16:20:19.982Z,9.40
2019-03-11T16:22:48.951Z,9.30
2019-03-11T16:25:17.591Z,9.30
2019-03-11T16:27:46.204Z,9.20
2019-03-11T16:30:19.726Z,9.20
2019-03-11T16:32:58.440Z,9.20
2019-03-11T16:35:19.559Z,9.10
2019-03-11T16:37:48.015Z,9.10
2019-03-11T16:40:16.629Z,9.10
2019-03-11T16:42:45.158Z,9.00
2019-03-11T16:45:15.448Z,9.00
2019-03-11T16:47:43.908Z,8.90
2019-03-11T16:50:17.391Z,8.90
2019-03-11T16:52:45.974Z,8.80
2019-03-11T16:55:17.823Z,8.80
2019-03-11T16:57:46.308Z,8.70
2019-03-11T17:00:18.184Z,8.70
2019-03-11T17:02:47.073Z,8.70
2019-03-11T17:05:15.858Z,8.70
2019-03-11T17:07:44.308Z,8.70
2019-03-11T17:10:15.698Z,8.70
2019-03-11T17:12:44.230Z,8.60
2019-03-11T17:15:13.410Z,8.70
2019-03-11T17:17:41.933Z,8.70
2019-03-11T17:20:13.057Z,8.70
2019-03-11T17:22:41.570Z,8.70
2019-03-11T17:25:11.897Z,8.70
2019-03-11T17:27:40.567Z,8.70
2019-03-11T17:30:22.512Z,8.70
2019-03-11T17:32:50.980Z,8.70
2019-03-11T17:35:19.622Z,8.70
2019-03-11T17:37:48.170Z,8.70
2019-03-11T17:40:23.660Z,8.70
2019-03-11T17:42:52.405Z,8.50
2019-03-11T17:45:21.370Z,8.70
2019-03-11T17:47:50.196Z,8.80
2019-03-11T17:50:19.758Z,8.70
2019-03-11T17:52:48.465Z,8.70
2019-03-11T17:55:18.041Z,8.70
2019-03-11T17:57:47.047Z,8.90
2019-03-11T18:00:25.763Z,8.70
2019-03-11T18:02:54.974Z,8.70
2019-03-11T18:05:23.768Z,8.70
2019-03-11T18:07:53.070Z,8.70
2019-03-11T18:10:21.611Z,8.70
2019-03-11T18:12:50.135Z,8.70
2019-03-11T18:15:18.898Z,8.70
2019-03-11T18:17:47.455Z,8.70
2019-03-11T18:20:17.531Z,8.70
2019-03-11T18:22:46.395Z,8.60
2019-03-11T18:25:16.502Z,8.70
2019-03-11T18:27:45.234Z,8.70
2019-03-11T18:30:24.578Z,8.70
2019-03-11T18:32:53.248Z,8.60
2019-03-11T18:35:22.008Z,8.60
2019-03-11T18:37:50.625Z,8.60
2019-03-11T18:40:20.119Z,8.60
2019-03-11T18:42:48.784Z,8.60
2019-03-11T18:45:17.874Z,8.60
2019-03-11T18:47:46.832Z,8.60
2019-03-11T18:50:20.874Z,8.50
2019-03-11T18:52:49.421Z,8.50
2019-03-11T18:55:17.920Z,8.50
2019-03-11T18:57:46.527Z,8.50
2019-03-11T19:00:20.482Z,8.50
2019-03-11T19:02:49.590Z,8.50
2019-03-11T19:05:23.152Z,8.50
2019-03-11T19:07:54.794Z,8.50
2019-03-11T19:10:22.242Z,8.50
2019-03-11T19:12:50.800Z,8.50
2019-03-11T19:15:20.989Z,8.50
2019-03-11T19:17:49.663Z,8.50
2019-03-11T19:20:22.944Z,8.60
2019-03-11T19:22:51.682Z,8.60
2019-03-11T19:25:20.460Z,8.60
2019-03-11T19:27:49.034Z,8.70
2019-03-11T19:30:22.987Z,8.60
2019-03-11T19:32:51.565Z,8.60
2019-03-11T19:35:20.631Z,8.60
2019-03-11T19:37:49.410Z,8.70
2019-03-11T19:40:20.208Z,8.70
2019-03-11T19:42:48.859Z,8.60
2019-03-11T19:45:17.816Z,8.60
2019-03-11T19:47:46.366Z,8.60
2019-03-11T19:50:19.073Z,8.60
2019-03-11T19:52:57.982Z,8.60
2019-03-11T19:55:18.271Z,8.60
2019-03-11T19:57:46.864Z,8.60
2019-03-11T20:00:23.213Z,8.60
2019-03-11T20:02:51.816Z,8.60
2019-03-11T20:05:26.000Z,8.60
2019-03-11T20:07:54.522Z,8.60
2019-03-11T20:10:23.575Z,8.70
2019-03-11T20:12:52.190Z,8.60
2019-03-11T20:15:20.974Z,8.60
2019-03-11T20:17:49.686Z,8.50
2019-03-11T20:20:19.312Z,8.50
2019-03-11T20:22:49.444Z,8.60
2019-03-11T20:25:29.506Z,8.60
2019-03-11T20:27:58.150Z,8.60
2019-03-11T20:30:26.885Z,8.60
2019-03-11T20:32:55.436Z,8.60
2019-03-11T20:35:24.161Z,8.60
2019-03-11T20:37:52.857Z,8.50
2019-03-11T20:40:21.380Z,8.40
2019-03-11T20:42:50.165Z,8.40
2019-03-11T20:45:21.041Z,8.20
2019-03-11T20:47:49.679Z,8.20
2019-03-11T20:50:19.004Z,8.10
2019-03-11T20:52:47.724Z,8.10
2019-03-11T20:55:17.727Z,8.00
2019-03-11T20:57:46.350Z,7.90
2019-03-11T21:00:22.158Z,7.80
2019-03-11T21:02:51.065Z,7.80
2019-03-11T21:05:40.783Z,7.70
2019-03-11T21:08:11.953Z,7.60
2019-03-11T21:10:40.751Z,7.60
2019-03-11T21:13:09.462Z,7.50
2019-03-11T21:15:37.936Z,7.40
2019-03-11T21:18:06.538Z,7.30
2019-03-11T21:20:35.143Z,7.30
2019-03-11T21:23:03.866Z,7.30
2019-03-11T21:25:32.313Z,7.30
2019-03-11T21:28:00.988Z,7.30
2019-03-11T21:30:29.499Z,7.30
2019-03-11T21:32:58.133Z,7.30
2019-03-11T21:35:26.785Z,7.30
2019-03-11T21:37:55.499Z,7.30
2019-03-11T21:40:24.619Z,7.30
2019-03-11T21:42:53.272Z,7.20
2019-03-11T21:45:33.640Z,7.20
2019-03-11T21:47:52.330Z,7.20
2019-03-11T21:50:23.086Z,7.30
2019-03-11T21:52:51.683Z,7.20
2019-03-11T21:55:20.434Z,7.20
2019-03-11T21:57:49.365Z,7.20
2019-03-11T22:00:33.066Z,7.10
2019-03-11T22:02:51.462Z,7.10
2019-03-11T22:05:20.500Z,7.10
2019-03-11T22:07:49.267Z,7.10
2019-03-11T22:10:18.391Z,7.10
2019-03-11T22:12:46.924Z,7.10
2019-03-11T22:15:28.408Z,7.10
2019-03-11T22:17:56.866Z,7.10
2019-03-11T22:20:25.346Z,7.00
2019-03-11T22:22:53.878Z,7.00
2019-03-11T22:25:43.369Z,6.90
2019-03-11T22:28:11.812Z,6.90
2019-03-11T22:30:40.561Z,6.90
2019-03-11T22:33:09.081Z,7.00
2019-03-11T22:35:37.543Z,7.10
2019-03-11T22:38:06.132Z,7.10
2019-03-11T22:40:34.579Z,7.10
2019-03-11T22:43:03.059Z,7.10
2019-03-11T22:45:31.617Z,7.20
2019-03-11T22:48:00.732Z,7.20
2019-03-11T22:50:29.178Z,7.20
2019-03-11T22:52:57.838Z,7.30
2019-03-11T22:55:26.400Z,7.30
2019-03-11T22:57:55.436Z,7.40
2019-03-11T23:00:57.092Z,7.40
2019-03-11T23:03:26.298Z,7.50
2019-03-11T23:05:58.041Z,7.60
2019-03-11T23:08:25.470Z,7.50
2019-03-11T23:10:54.180Z,7.60
2019-03-11T23:13:22.892Z,7.60
2019-03-11T23:15:51.528Z,7.60
2019-03-11T23:18:20.120Z,7.60
2019-03-11T23:20:48.652Z,7.70
2019-03-11T23:23:17.091Z,7.70
2019-03-11T23:25:45.586Z,7.70
2019-03-11T23:28:14.048Z,7.70
2019-03-11T23:30:42.639Z,7.80
2019-03-11T23:33:11.150Z,7.80
2019-03-11T23:35:39.625Z,7.80
2019-03-11T23:38:08.091Z,7.80
2019-03-11T23:40:36.732Z,7.80
2019-03-11T23:43:05.188Z,7.80
2019-03-11T23:45:33.776Z,7.80
2019-03-11T23:48:02.318Z,7.80
2019-03-11T23:50:30.892Z,7.80
2019-03-11T23:52:59.365Z,7.80
2019-03-11T23:55:28.007Z,7.90
2019-03-11T23:57:56.471Z,7.80
